Aeroporto :
LOGIN :

Iscrizione | Disclaimer

   EN    FR    IT 

 










Sommario :    VFR   VFR Marginale   IFR   IFR Intensivo   IFR Molto Intensivo
Visibilità : 
Base nubi : 
>= 8 km
>= 3000ft
5 / 8 km
1000 / 3000 ft
1500m / 5 km
500 / 1000 ft
800 / 1500m
200 / 500 ft
< 800m
< 200 ft
Simboli :   Temporali  Nebbia  Neve Forte  Precipitazioni Forti  Vento > 20 kt
SIGMETs :   Varie  Temporali  Ghiacco  Turbolenza  Onda orograficha  Ceneri Vulcaniche







- Altitudine del aeroporto : 288 ft
- Codice IATA : BZZ


EGVN - RAF Brize Norton

ULTIMO METAR :
  • 250450Z 34010KT 9999 FEW032 06/01 Q1030 NOSIG

METARs OBSOLETI :
  • 250350Z AUTO 33015G25KT 9999 FEW027/// SCT031/// BKN042/// 07/02 Q1029
  • 250250Z 32006KT 9999 FEW022 07/03 Q1029 NOSIG

TAF TAF EGVN
Valido dal 25 a 06 ore il 26 a 06 ore UTC


250422Z 2506/2606 33006KT 9999 SCT045
Nessun NOTAM noto per questo aeroporto.
2 SIGMETs conosciuti per la FIR London (EGTT) :
 
Turbolenza severa
EGTT SIGMET 02 VALID 250600/251000 EGRR
EGTT LONDON FIR SEV TURB FCST NE OF LINE N5500 E00153 - N5309 E00324 SFC/FL060 STNR WKN=
Turbolenza severa
EGTT SIGMET 01 VALID 250200/250600 EGRR
EGTT LONDON FIR SEV TURB FCST WI N5500 E00500 - N5315 E00330 - N5500 W00040 - N5500 E00500 SFC/FL060 STNR NC=



MetMap, La meteo Aeronautica in un colpo d'occhio ! - Copyright ORBIFLY Dicembre 2007 - Disclaimer

ORBIFLY MET'MAP TEAM :

Programmazione e sviluppo : Alexandra Zaïnal
Concezione e sviluppo : Baudouin d'Aumeries
Co-Programmazione e sviluppo : Marc-Olivier Méhu
Supporto tecnico e logistico : Manuel Goepfert
Aiuto per la traduzione : Arnaldo La Scala

Contatto : metmap@orbifly.com




FONTI E CREDITI :

   NOAA